Time;durP1;ratioP1;P1;durP2;ratioP2;P2;SDS_P1;SDS_P2;PMS_P1;PMS_P2;Temp;Humidity;BMP_temperature;BMP_pressure;BME280_temperature;BME280_humidity;BME280_pressure;Samples;Min_cycle;Max_cycle;Signal;HPM_P1;HPM_P2
2021/11/13 00:00:54;;;;;;;93.10;45.80;;;;;;;4.15;100.00;99252.42;102448;1311;73488;-73
2021/11/13 00:03:21;;;;;;;93.60;45.70;;;;;;;4.16;100.00;99247.81;101993;1314;61472;-73
2021/11/13 00:05:48;;;;;;;92.10;47.10;;;;;;;4.17;100.00;99238.61;102441;1314;62171;-73
2021/11/13 00:08:15;;;;;;;93.30;43.60;;;;;;;4.18;100.00;99235.95;102481;1311;73925;-73
2021/11/13 00:10:42;;;;;;;79.70;40.60;;;;;;;4.17;100.00;99236.84;102513;1310;69416;-73
2021/11/13 00:13:10;;;;;;;87.40;45.10;;;;;;;4.17;100.00;99237.77;102367;1310;72304;-73
2021/11/13 00:15:37;;;;;;;93.00;46.70;;;;;;;4.16;100.00;99236.70;102371;1310;61361;-73
2021/11/13 00:18:04;;;;;;;93.20;47.70;;;;;;;4.18;100.00;99234.01;102555;1310;61237;-73
2021/11/13 00:20:31;;;;;;;97.40;46.60;;;;;;;4.20;100.00;99230.95;102589;1310;76095;-72
2021/11/13 00:22:59;;;;;;;90.20;43.80;;;;;;;4.22;100.00;99230.02;102541;1311;70749;-74
2021/11/13 00:25:26;;;;;;;92.10;46.90;;;;;;;4.22;100.00;99227.55;102431;1313;73815;-73
2021/11/13 00:27:53;;;;;;;90.90;47.10;;;;;;;4.23;100.00;99232.60;102637;1314;61425;-73
2021/11/13 00:30:20;;;;;;;86.80;45.00;;;;;;;4.26;100.00;99227.75;102669;1310;61910;-72
2021/11/13 00:32:47;;;;;;;92.60;47.70;;;;;;;4.27;100.00;99228.59;102791;1317;75249;-73
2021/11/13 00:35:15;;;;;;;90.30;44.30;;;;;;;4.27;100.00;99221.94;103011;1310;69558;-74
2021/11/13 00:37:42;;;;;;;90.50;45.60;;;;;;;4.24;100.00;99223.25;103320;1310;74484;-75
2021/11/13 00:40:12;;;;;;;89.40;46.70;;;;;;;4.23;100.00;99220.31;103241;1310;61299;-74
2021/11/13 00:42:39;;;;;;;90.20;45.70;;;;;;;4.21;100.00;99221.26;104133;1314;61922;-73
2021/11/13 00:45:06;;;;;;;93.70;48.80;;;;;;;4.19;100.00;99221.49;105361;1313;75426;-72
2021/11/13 00:47:35;;;;;;;94.50;44.20;;;;;;;4.19;100.00;99217.45;105324;1310;69385;-72
2021/11/13 00:50:04;;;;;;;84.30;42.20;;;;;;;4.18;100.00;99218.70;105110;1316;72402;-74
2021/11/13 00:52:30;;;;;;;90.70;44.70;;;;;;;4.16;100.00;99216.15;103889;1310;61283;-73
2021/11/13 00:54:57;;;;;;;88.70;43.60;;;;;;;4.16;100.00;99216.14;102508;1314;61200;-75
2021/11/13 00:57:24;;;;;;;94.30;44.40;;;;;;;4.17;100.00;99213.85;102492;1311;76388;-73
2021/11/13 00:59:50;;;;;;;87.30;44.40;;;;;;;4.15;100.00;99209.85;102468;1310;70365;-74
2021/11/13 01:02:17;;;;;;;83.50;42.10;;;;;;;4.13;100.00;99210.83;102414;1311;72471;-75
2021/11/13 01:04:43;;;;;;;89.10;46.00;;;;;;;4.11;100.00;99208.98;102395;1310;61348;-74
2021/11/13 01:07:10;;;;;;;86.30;45.40;;;;;;;4.10;100.00;99207.23;102329;1310;62603;-73
2021/11/13 01:09:38;;;;;;;86.50;42.40;;;;;;;4.10;100.00;99206.19;102318;1310;76698;-73
2021/11/13 01:12:05;;;;;;;85.80;43.80;;;;;;;4.09;100.00;99205.01;102329;1310;70497;-74
2021/11/13 01:14:39;;;;;;;89.90;46.50;;;;;;;4.08;100.00;99202.04;102385;1310;73575;-72
2021/11/13 01:17:11;;;;;;;94.40;46.30;;;;;;;4.09;100.00;99199.73;102340;1310;61335;-74
2021/11/13 01:19:41;;;;;;;93.60;45.70;;;;;;;4.09;100.00;99200.04;102360;1311;62232;-73
2021/11/13 01:22:08;;;;;;;94.50;44.50;;;;;;;4.09;100.00;99195.14;102369;1311;73575;-73
2021/11/13 01:24:34;;;;;;;92.30;44.70;;;;;;;4.07;100.00;99193.44;102383;1310;70748;-74
2021/11/13 01:27:01;;;;;;;89.20;45.00;;;;;;;4.06;100.00;99187.35;102052;1314;71542;-73
2021/11/13 01:29:28;;;;;;;92.80;43.60;;;;;;;4.05;100.00;99186.13;102423;1310;61306;-73
2021/11/13 01:31:54;;;;;;;88.90;45.20;;;;;;;4.05;100.00;99182.30;102613;1310;61232;-73
2021/11/13 01:34:21;;;;;;;89.30;44.30;;;;;;;4.05;100.00;99179.47;102600;1314;73133;-74
2021/11/13 01:36:48;;;;;;;97.10;45.60;;;;;;;4.05;100.00;99179.64;102969;1311;69277;-74
2021/11/13 01:39:15;;;;;;;100.40;46.40;;;;;;;4.05;100.00;99179.46;102564;1314;74579;-75
2021/11/13 01:41:42;;;;;;;99.40;47.50;;;;;;;4.05;100.00;99174.73;102300;1310;61320;-74
2021/11/13 01:44:10;;;;;;;97.50;45.80;;;;;;;4.04;100.00;99175.12;102445;1313;61416;-74
2021/11/13 01:46:38;;;;;;;88.10;45.00;;;;;;;4.03;100.00;99173.56;102496;1311;75209;-75
2021/11/13 01:49:05;;;;;;;97.10;47.10;;;;;;;4.04;100.00;99174.25;102306;1313;70268;-74
2021/11/13 01:51:34;;;;;;;93.50;42.70;;;;;;;4.02;100.00;99169.77;102305;1310;74642;-74
2021/11/13 01:54:06;;;;;;;95.70;45.10;;;;;;;4.02;100.00;99166.73;102340;1311;61306;-72
2021/11/13 01:56:34;;;;;;;91.20;45.40;;;;;;;4.01;100.00;99161.52;102341;1314;62211;-73
2021/11/13 01:59:04;;;;;;;101.70;46.30;;;;;;;4.01;100.00;99157.84;102354;1314;76644;-73
2021/11/13 02:01:31;;;;;;;86.80;41.60;;;;;;;3.99;100.00;99159.98;102430;1310;70566;-74
2021/11/13 02:03:58;;;;;;;94.60;46.10;;;;;;;4.00;100.00;99158.90;102065;1313;73512;-74
2021/11/13 02:06:25;;;;;;;89.00;43.40;;;;;;;4.02;100.00;99160.96;102372;1310;61323;-74
2021/11/13 02:08:52;;;;;;;95.00;44.90;;;;;;;4.01;100.00;99157.48;102433;1313;61345;-74
2021/11/13 02:11:21;;;;;;;90.00;45.70;;;;;;;4.01;100.00;99158.55;102386;1310;76497;-74
2021/11/13 02:13:49;;;;;;;87.80;44.20;;;;;;;4.01;100.00;99153.23;102420;1310;69290;-77
2021/11/13 02:16:16;;;;;;;82.10;41.70;;;;;;;4.01;100.00;99149.37;102355;1314;74770;-75
2021/11/13 02:18:44;;;;;;;82.40;42.50;;;;;;;4.02;100.00;99150.08;102404;1310;61322;-73
2021/11/13 02:21:12;;;;;;;86.30;42.60;;;;;;;4.00;100.00;99146.77;102397;1310;61938;-73
2021/11/13 02:23:40;;;;;;;89.40;44.20;;;;;;;3.99;100.00;99143.11;102299;1311;76217;-74
2021/11/13 02:26:07;;;;;;;91.20;44.50;;;;;;;4.00;100.00;99139.91;102340;1316;69540;-74
2021/11/13 02:28:35;;;;;;;95.70;45.90;;;;;;;4.01;100.00;99136.55;102035;1314;73527;-74
2021/11/13 02:31:08;;;;;;;84.10;42.10;;;;;;;4.00;100.00;99129.55;102339;1314;61316;-74
2021/11/13 02:33:36;;;;;;;95.80;47.20;;;;;;;4.00;100.00;99130.59;102107;1313;61215;-73
2021/11/13 02:36:06;;;;;;;91.60;44.70;;;;;;;4.00;100.00;99131.31;102341;1310;76480;-74
2021/11/13 02:38:36;;;;;;;96.60;47.90;;;;;;;4.02;100.00;99136.69;102331;1311;70023;-73
2021/11/13 02:41:06;;;;;;;87.00;44.00;;;;;;;4.04;100.00;99133.64;102349;1310;74174;-75
2021/11/13 02:43:34;;;;;;;97.10;44.60;;;;;;;4.04;100.00;99133.46;102354;1311;61317;-74
2021/11/13 02:46:04;;;;;;;95.30;46.00;;;;;;;4.02;100.00;99130.19;102082;1310;61331;-73
2021/11/13 02:48:34;;;;;;;93.00;46.00;;;;;;;4.02;100.00;99130.04;102460;1310;76235;-74
2021/11/13 02:51:01;;;;;;;100.60;46.60;;;;;;;4.03;100.00;99130.84;102322;1310;70549;-74
2021/11/13 02:53:29;;;;;;;103.70;47.80;;;;;;;4.03;100.00;99123.46;102344;1311;73470;-76
2021/11/13 02:55:57;;;;;;;92.60;45.70;;;;;;;4.04;100.00;99124.50;102356;1313;61297;-72
2021/11/13 02:58:25;;;;;;;97.60;46.30;;;;;;;4.03;100.00;99118.54;102420;1314;61186;-76
2021/11/13 03:00:56;;;;;;;99.00;47.90;;;;;;;4.03;100.00;99118.02;102444;1310;76256;-74
2021/11/13 03:03:23;;;;;;;94.40;45.20;;;;;;;4.02;100.00;99111.73;102486;1310;70589;-74
2021/11/13 03:05:56;;;;;;;91.20;45.90;;;;;;;4.00;100.00;99109.17;102241;1317;73839;-73
2021/11/13 03:08:33;;;;;;;95.30;46.40;;;;;;;4.00;100.00;99108.99;102593;1313;61310;-74
2021/11/13 03:11:04;;;;;;;106.80;49.80;;;;;;;4.00;100.00;99104.77;102576;1314;61196;-74
2021/11/13 03:13:32;;;;;;;101.90;52.00;;;;;;;4.02;100.00;99099.42;102365;1314;76832;-73
2021/11/13 03:16:01;;;;;;;99.30;51.30;;;;;;;4.04;100.00;99099.88;102330;1316;68758;-73
2021/11/13 03:18:27;;;;;;;134.00;73.30;;;;;;;4.06;100.00;99097.69;102350;1310;73901;-73
2021/11/13 03:20:54;;;;;;;117.80;64.40;;;;;;;4.07;100.00;99098.55;101954;1314;61430;-74
2021/11/13 03:23:24;;;;;;;172.70;92.40;;;;;;;4.06;100.00;99100.14;102372;1313;61398;-74
2021/11/13 03:25:59;;;;;;;186.40;95.50;;;;;;;4.05;100.00;99104.39;102436;1310;76370;-73
2021/11/13 03:28:29;;;;;;;139.60;78.60;;;;;;;4.05;100.00;99105.62;102361;1310;68721;-73
2021/11/13 03:31:00;;;;;;;116.70;60.70;;;;;;;4.06;100.00;99112.45;102353;1311;72707;-72
2021/11/13 03:33:31;;;;;;;118.00;62.40;;;;;;;4.06;100.00;99111.03;101974;1313;61434;-72
2021/11/13 03:35:59;;;;;;;103.60;52.40;;;;;;;4.06;100.00;99113.00;101917;1318;62200;-72
2021/11/13 03:38:25;;;;;;;109.60;50.90;;;;;;;4.05;100.00;99109.34;102250;1310;76798;-72
2021/11/13 03:40:53;;;;;;;100.30;49.20;;;;;;;4.07;100.00;99110.49;102324;1310;69897;-72
2021/11/13 03:43:21;;;;;;;102.30;49.00;;;;;;;4.06;100.00;99112.98;102353;1313;73416;-74
2021/11/13 03:45:50;;;;;;;108.40;52.60;;;;;;;4.06;100.00;99110.34;102325;1310;61852;-73
2021/11/13 03:48:18;;;;;;;100.90;47.60;;;;;;;4.06;100.00;99105.97;102384;1313;61632;-74
2021/11/13 03:50:46;;;;;;;99.00;45.80;;;;;;;4.04;100.00;99107.42;102305;1310;74918;-74
2021/11/13 03:53:13;;;;;;;102.60;45.90;;;;;;;4.04;100.00;99109.37;102148;1313;70670;-74
2021/11/13 03:55:39;;;;;;;97.50;45.60;;;;;;;4.02;100.00;99105.39;101971;1317;74562;-73
2021/11/13 03:58:06;;;;;;;99.60;46.80;;;;;;;3.99;100.00;99097.96;102253;1310;61771;-73
2021/11/13 04:00:33;;;;;;;95.70;46.50;;;;;;;3.94;100.00;99101.83;102335;1310;62837;-74
2021/11/13 04:03:00;;;;;;;100.40;47.90;;;;;;;3.91;100.00;99100.72;102319;1314;75458;-73
2021/11/13 04:05:26;;;;;;;107.60;49.10;;;;;;;3.90;100.00;99101.30;102334;1310;70611;-74
2021/11/13 04:07:53;;;;;;;114.70;50.40;;;;;;;3.90;100.00;99101.65;102359;1311;73735;-74
2021/11/13 04:10:21;;;;;;;99.90;46.30;;;;;;;3.88;100.00;99096.43;102363;1311;61404;-74
2021/11/13 04:12:48;;;;;;;107.40;50.40;;;;;;;3.88;100.00;99093.64;102378;1310;61589;-74
2021/11/13 04:15:15;;;;;;;104.40;48.20;;;;;;;3.88;100.00;99089.56;102276;1310;75485;-73
2021/11/13 04:17:46;;;;;;;101.40;47.10;;;;;;;3.88;100.00;99088.34;102032;1316;68958;-73
2021/11/13 04:20:12;;;;;;;104.50;48.20;;;;;;;3.86;100.00;99088.58;102478;1310;74470;-73
2021/11/13 04:22:40;;;;;;;104.10;47.90;;;;;;;3.84;100.00;99086.20;102351;1311;61567;-73
2021/11/13 04:25:08;;;;;;;99.80;47.40;;;;;;;3.82;100.00;99088.92;102348;1310;61441;-77
2021/11/13 04:27:37;;;;;;;103.80;45.50;;;;;;;3.80;100.00;99091.14;102077;1313;76501;-74
2021/11/13 04:30:07;;;;;;;95.50;44.90;;;;;;;3.79;100.00;99094.35;102387;1310;70576;-74
2021/11/13 04:32:37;;;;;;;100.50;48.60;;;;;;;3.74;100.00;99090.83;102054;1313;72927;-73
2021/11/13 04:37:51;;;;;;;102.10;47.60;;;;;;;3.70;100.00;99089.55;102360;1310;61422;-72
2021/11/13 04:40:19;;;;;;;103.10;47.30;;;;;;;3.71;100.00;99093.02;102209;1311;183673;-73
2021/11/13 04:42:46;;;;;;;101.40;45.20;;;;;;;3.74;100.00;99094.66;102410;1310;69031;-73
2021/11/13 04:45:13;;;;;;;95.00;46.40;;;;;;;3.76;100.00;99093.19;102349;1310;74200;-74
2021/11/13 04:47:40;;;;;;;87.40;41.70;;;;;;;3.75;100.00;99094.29;102431;1316;61327;-73
2021/11/13 04:50:09;;;;;;;98.00;45.90;;;;;;;3.75;100.00;99095.69;102323;1314;61605;-73
2021/11/13 04:52:36;;;;;;;88.10;43.10;;;;;;;3.76;100.00;99093.56;102343;1310;76541;-73
2021/11/13 04:55:03;;;;;;;85.20;41.90;;;;;;;3.75;100.00;99095.17;102315;1310;70451;-73
2021/11/13 04:57:30;;;;;;;90.50;42.90;;;;;;;3.77;100.00;99098.83;102375;1311;73262;-74
2021/11/13 04:59:57;;;;;;;93.30;43.70;;;;;;;3.77;100.00;99092.48;102296;1310;61427;-74
2021/11/13 05:02:25;;;;;;;103.30;47.00;;;;;;;3.77;100.00;99094.56;102307;1310;61389;-74
2021/11/13 05:04:54;;;;;;;89.40;44.50;;;;;;;3.78;100.00;99094.01;102345;1310;76480;-73
2021/11/13 05:07:22;;;;;;;88.00;42.70;;;;;;;3.78;100.00;99092.41;102071;1314;69239;-73
2021/11/13 05:09:51;;;;;;;95.00;45.90;;;;;;;3.77;100.00;99095.10;102338;1314;73079;-73
2021/11/13 05:12:18;;;;;;;98.70;45.70;;;;;;;3.76;100.00;99097.23;102136;1317;61389;-72
2021/11/13 05:14:45;;;;;;;100.70;46.30;;;;;;;3.75;100.00;99097.98;102416;1310;61859;-74
2021/11/13 05:17:12;;;;;;;101.50;46.90;;;;;;;3.73;100.00;99093.65;102444;1310;74859;-74
2021/11/13 05:19:39;;;;;;;99.80;46.50;;;;;;;3.74;100.00;99090.13;102326;1310;70247;-73
2021/11/13 05:22:05;;;;;;;102.40;46.60;;;;;;;3.75;100.00;99094.83;102338;1310;73418;-74
2021/11/13 05:24:32;;;;;;;99.70;45.70;;;;;;;3.75;100.00;99089.55;102311;1310;61318;-74
2021/11/13 05:26:59;;;;;;;98.40;46.30;;;;;;;3.74;100.00;99090.81;102348;1311;61296;-73
2021/11/13 05:29:26;;;;;;;102.80;45.80;;;;;;;3.73;100.00;99095.95;102322;1310;76200;-72
2021/11/13 05:31:53;;;;;;;103.20;46.70;;;;;;;3.74;100.00;99096.10;102031;1314;69624;-74
2021/11/13 05:34:19;;;;;;;100.40;45.70;;;;;;;3.74;100.00;99098.71;102383;1310;74611;-75
2021/11/13 05:36:46;;;;;;;104.00;48.80;;;;;;;3.73;100.00;99100.52;102376;1310;61399;-74
2021/11/13 05:39:14;;;;;;;93.60;44.70;;;;;;;3.74;100.00;99100.30;102390;1311;61854;-73
2021/11/13 05:41:41;;;;;;;96.60;46.50;;;;;;;3.75;100.00;99098.69;102534;1310;75732;-72
2021/11/13 05:44:08;;;;;;;103.80;46.90;;;;;;;3.76;100.00;99099.54;102491;1310;69341;-75
2021/11/13 05:46:35;;;;;;;110.60;50.40;;;;;;;3.75;100.00;99099.04;102411;1311;73491;-72
2021/11/13 05:49:02;;;;;;;95.80;45.30;;;;;;;3.75;100.00;99102.36;102424;1310;61377;-73
2021/11/13 05:51:29;;;;;;;92.00;43.90;;;;;;;3.76;100.00;99102.17;102149;1313;61899;-74
2021/11/13 05:53:55;;;;;;;102.20;42.80;;;;;;;3.75;100.00;99098.52;102602;1310;75381;-74
2021/11/13 05:56:22;;;;;;;100.00;43.30;;;;;;;3.74;100.00;99100.84;102570;1314;70925;-74
2021/11/13 05:58:49;;;;;;;101.50;47.70;;;;;;;3.74;100.00;99104.52;102591;1310;74198;-73
2021/11/13 06:01:15;;;;;;;104.50;47.00;;;;;;;3.74;100.00;99109.79;102613;1310;61657;-74
2021/11/13 06:03:42;;;;;;;108.60;48.40;;;;;;;3.76;100.00;99115.71;102739;1310;62273;-74
2021/11/13 06:06:08;;;;;;;100.70;46.70;;;;;;;3.78;100.00;99118.96;102964;1314;61326;-73
2021/11/13 06:08:35;;;;;;;112.10;49.70;;;;;;;3.81;100.00;99118.86;103201;1310;69704;-74
2021/11/13 06:11:02;;;;;;;117.10;56.50;;;;;;;3.84;100.00;99121.92;103417;1313;74161;-72
2021/11/13 06:13:28;;;;;;;113.60;53.40;;;;;;;3.85;100.00;99123.08;104256;1313;61229;-73
2021/11/13 06:15:55;;;;;;;112.60;57.40;;;;;;;3.89;100.00;99129.27;105662;1311;60890;-72
2021/11/13 06:18:21;;;;;;;110.80;54.30;;;;;;;3.91;100.00;99131.66;105658;1310;60056;-74
2021/11/13 06:20:48;;;;;;;110.90;55.10;;;;;;;3.93;100.00;99134.39;105422;1315;69494;-74
2021/11/13 06:23:14;;;;;;;111.40;59.90;;;;;;;3.94;100.00;99139.80;103537;1310;72580;-73
2021/11/13 06:25:41;;;;;;;102.30;49.80;;;;;;;3.94;100.00;99135.92;102511;1310;61295;-74
2021/11/13 06:28:08;;;;;;;104.70;54.20;;;;;;;3.96;100.00;99141.48;102505;1311;61206;-74
2021/11/13 06:30:34;;;;;;;113.60;55.10;;;;;;;3.97;100.00;99145.66;102459;1314;76292;-76
2021/11/13 06:33:01;;;;;;;107.90;52.30;;;;;;;3.98;100.00;99143.88;102369;1311;69237;-73
2021/11/13 06:35:28;;;;;;;103.90;49.10;;;;;;;3.98;100.00;99145.96;102359;1310;73693;-73
2021/11/13 06:37:54;;;;;;;101.10;45.70;;;;;;;4.00;100.00;99148.73;102383;1314;61326;-73
2021/11/13 06:40:21;;;;;;;98.70;48.50;;;;;;;4.03;100.00;99151.96;102343;1310;62151;-74
2021/11/13 06:42:47;;;;;;;98.90;44.20;;;;;;;4.02;100.00;99153.55;102367;1311;76496;-74
2021/11/13 06:45:15;;;;;;;101.20;43.80;;;;;;;4.00;100.00;99151.55;102365;1314;69371;-73
2021/11/13 06:47:41;;;;;;;94.60;44.20;;;;;;;3.95;100.00;99146.95;102333;1311;73331;-73
2021/11/13 06:50:10;;;;;;;102.40;45.40;;;;;;;3.93;100.00;99153.04;102478;1310;61273;-74
2021/11/13 06:52:37;;;;;;;109.60;51.30;;;;;;;3.90;100.00;99154.88;102484;1314;61216;-74
2021/11/13 06:55:05;;;;;;;106.00;50.40;;;;;;;3.90;100.00;99152.75;102475;1314;76703;-73
2021/11/13 06:57:31;;;;;;;102.80;51.90;;;;;;;3.91;100.00;99154.48;102827;1310;67943;-73
2021/11/13 06:59:58;;;;;;;107.70;51.00;;;;;;;3.90;100.00;99154.89;102868;1310;74417;-73
2021/11/13 07:02:24;;;;;;;103.50;52.20;;;;;;;3.92;100.00;99151.83;102543;1317;61301;-73
2021/11/13 07:04:53;;;;;;;95.80;46.50;;;;;;;3.95;100.00;99156.63;102372;1310;61221;-73
2021/11/13 07:07:19;;;;;;;97.30;46.10;;;;;;;3.97;100.00;99158.50;102387;1310;76381;-74
2021/11/13 07:09:46;;;;;;;102.60;45.40;;;;;;;3.99;100.00;99154.55;102390;1310;69180;-72
2021/11/13 07:12:12;;;;;;;99.10;49.80;;;;;;;4.01;100.00;99151.52;102407;1310;61409;-74
2021/11/13 07:14:39;;;;;;;97.80;49.30;;;;;;;4.02;100.00;99153.73;102021;1313;61297;-74
2021/11/13 07:17:06;;;;;;;101.60;47.80;;;;;;;4.06;100.00;99154.14;102448;1310;61438;-74
2021/11/13 07:19:32;;;;;;;101.10;46.50;;;;;;;4.08;100.00;99152.99;102380;1310;76153;-74
2021/11/13 07:21:59;;;;;;;101.40;48.10;;;;;;;4.07;100.00;99157.41;102311;1317;69295;-74
2021/11/13 07:24:25;;;;;;;102.70;50.90;;;;;;;4.08;100.00;99156.14;102316;1310;73192;-74
2021/11/13 07:26:53;;;;;;;100.00;47.50;;;;;;;4.11;100.00;99155.86;102339;1314;61320;-73
2021/11/13 07:29:26;;;;;;;103.60;49.20;;;;;;;4.16;100.00;99154.42;102323;1311;61813;-73
2021/11/13 07:31:53;;;;;;;94.30;46.00;;;;;;;4.21;100.00;99158.48;102366;1310;76864;-74
2021/11/13 07:34:20;;;;;;;91.70;43.70;;;;;;;4.24;100.00;99153.42;102346;1311;70861;-73
2021/11/13 07:36:47;;;;;;;93.70;44.80;;;;;;;4.26;100.00;99151.23;102517;1310;72673;-74
2021/11/13 07:39:14;;;;;;;91.80;45.80;;;;;;;4.29;100.00;99149.17;102395;1313;61437;-74
2021/11/13 07:41:40;;;;;;;88.20;41.90;;;;;;;4.30;100.00;99151.25;102435;1311;62014;-74
2021/11/13 07:44:07;;;;;;;93.80;43.60;;;;;;;4.30;100.00;99148.99;102501;1310;76189;-73
2021/11/13 07:46:34;;;;;;;88.40;42.60;;;;;;;4.30;100.00;99147.77;102393;1316;68912;-74
2021/11/13 07:49:01;;;;;;;87.20;44.80;;;;;;;4.32;100.00;99148.18;102265;1317;73376;-73
2021/11/13 07:51:28;;;;;;;96.10;45.80;;;;;;;4.31;100.00;99147.87;102263;1311;61360;-73
2021/11/13 07:53:55;;;;;;;93.40;45.80;;;;;;;4.31;100.00;99148.05;102390;1311;61308;-73
2021/11/13 07:56:21;;;;;;;97.50;45.90;;;;;;;4.34;100.00;99147.55;102401;1310;61295;-74
2021/11/13 07:58:48;;;;;;;86.60;43.90;;;;;;;4.37;100.00;99145.01;102365;1311;69548;-73
2021/11/13 08:01:14;;;;;;;88.70;42.30;;;;;;;4.41;100.00;99142.20;102303;1313;74286;-74
2021/11/13 08:03:41;;;;;;;95.50;43.40;;;;;;;4.40;100.00;99149.28;102349;1310;61339;-74
2021/11/13 08:06:07;;;;;;;89.90;44.70;;;;;;;4.44;100.00;99148.45;102110;1314;61388;-74
2021/11/13 08:08:34;;;;;;;93.70;45.00;;;;;;;4.49;100.00;99151.39;102330;1313;75574;-74
2021/11/13 08:11:01;;;;;;;96.60;45.60;;;;;;;4.57;100.00;99150.04;102381;1310;69894;-74
2021/11/13 08:13:28;;;;;;;91.20;42.50;;;;;;;4.66;100.00;99150.38;102321;1310;74321;-74
2021/11/13 08:15:55;;;;;;;95.80;46.30;;;;;;;4.72;100.00;99151.70;102384;1310;61223;-73
2021/11/13 08:18:22;;;;;;;101.50;49.80;;;;;;;4.78;100.00;99153.91;102348;1313;62014;-73
2021/11/13 08:20:49;;;;;;;93.10;44.10;;;;;;;4.83;100.00;99156.37;102406;1314;75493;-74
2021/11/13 08:23:16;;;;;;;89.60;44.20;;;;;;;4.89;100.00;99156.11;102387;1314;69207;-73
2021/11/13 08:25:45;;;;;;;83.70;42.10;;;;;;;4.98;100.00;99157.30;102218;1319;72522;-74
2021/11/13 08:28:13;;;;;;;73.50;38.80;;;;;;;5.09;100.00;99157.39;102385;1310;61405;-73
2021/11/13 08:30:40;;;;;;;76.30;39.60;;;;;;;5.21;100.00;99152.67;102421;1310;62066;-73
2021/11/13 08:33:07;;;;;;;81.60;40.60;;;;;;;5.34;100.00;99151.94;102347;1310;76395;-73
2021/11/13 08:35:36;;;;;;;80.60;39.40;;;;;;;5.47;100.00;99151.55;102377;1310;68977;-73
2021/11/13 08:38:04;;;;;;;79.70;41.60;;;;;;;5.60;100.00;99147.28;102311;1316;74455;-73
2021/11/13 08:40:31;;;;;;;78.90;41.20;;;;;;;5.70;100.00;99147.70;101964;1316;61317;-72
2021/11/13 08:42:58;;;;;;;78.70;41.20;;;;;;;5.80;100.00;99142.71;102592;1310;62182;-70
2021/11/13 08:45:25;;;;;;;75.00;40.60;;;;;;;5.86;100.00;99142.23;102174;1311;76306;-77
2021/11/13 08:47:51;;;;;;;75.80;40.10;;;;;;;5.95;100.00;99145.02;102200;1317;69413;-79
2021/11/13 08:50:24;;;;;;;79.50;40.40;;;;;;;6.04;100.00;99149.71;102552;1313;73497;-85
2021/11/13 08:52:54;;;;;;;75.30;38.60;;;;;;;6.12;99.92;99142.48;102734;1311;61415;-85
2021/11/13 08:55:22;;;;;;;80.60;42.20;;;;;;;6.16;99.68;99144.93;102642;1314;61433;-83
2021/11/13 08:57:50;;;;;;;80.90;44.50;;;;;;;6.21;99.41;99142.45;102498;1310;75364;-82
2021/11/13 09:00:30;;;;;;;80.10;42.50;;;;;;;6.22;99.31;99143.98;102086;1316;69555;-86
2021/11/13 09:02:59;;;;;;;80.00;42.20;;;;;;;6.24;99.21;99142.84;102658;1311;74245;-86
2021/11/13 09:05:26;;;;;;;77.70;40.70;;;;;;;6.28;99.24;99141.73;102929;1314;61303;-89
2021/11/13 09:07:54;;;;;;;73.70;40.20;;;;;;;6.35;99.21;99142.27;102918;1316;61847;-79
2021/11/13 09:10:22;;;;;;;83.20;41.50;;;;;;;6.42;98.88;99142.66;102521;1317;76181;-78
2021/11/13 09:12:49;;;;;;;72.90;40.90;;;;;;;6.49;98.70;99142.68;102346;1311;70551;-78
2021/11/13 09:15:24;;;;;;;80.10;40.10;;;;;;;6.54;98.45;99141.91;102221;1313;74582;-79
2021/11/13 09:17:53;;;;;;;74.30;39.30;;;;;;;6.57;98.18;99144.79;102010;1314;62141;-78
2021/11/13 09:20:21;;;;;;;71.80;39.40;;;;;;;6.61;98.04;99144.58;102348;1310;61212;-78
2021/11/13 09:22:48;;;;;;;70.00;37.20;;;;;;;6.63;97.81;99142.02;102356;1314;75371;-78
2021/11/13 09:25:15;;;;;;;72.00;39.40;;;;;;;6.61;97.69;99142.48;102371;1310;69564;-78
2021/11/13 09:27:45;;;;;;;71.70;40.30;;;;;;;6.57;97.50;99142.84;102339;1317;73935;-78
2021/11/13 09:30:14;;;;;;;;;;;;;;;6.57;97.45;99136.48;102467;1310;61316;-78
2021/11/13 09:32:43;;;;;;;78.50;41.70;;;;;;;6.55;97.25;99136.55;102355;1311;61331;-77
2021/11/13 09:35:11;;;;;;;75.50;40.10;;;;;;;6.53;97.17;99135.79;102316;1311;76229;-78
2021/11/13 09:37:38;;;;;;;68.20;40.00;;;;;;;6.54;97.21;99137.14;102361;1311;70434;-77
2021/11/13 09:40:07;;;;;;;71.40;38.40;;;;;;;6.55;97.26;99132.83;102341;1314;73514;-81
2021/11/13 09:42:33;;;;;;;68.60;38.70;;;;;;;6.58;97.16;99130.96;101985;1317;61542;-76
2021/11/13 09:45:00;;;;;;;74.90;42.20;;;;;;;6.53;96.99;99129.43;102325;1317;61428;-78
2021/11/13 09:47:27;;;;;;;73.00;41.10;;;;;;;6.50;96.94;99128.52;102365;1317;61303;-78
2021/11/13 09:49:54;;;;;;;77.20;45.20;;;;;;;6.60;96.87;99125.72;102346;1310;70253;-78
2021/11/13 09:52:21;;;;;;;71.40;40.30;;;;;;;6.70;96.65;99125.23;102315;1310;73464;-79
2021/11/13 09:54:48;;;;;;;74.00;41.10;;;;;;;6.81;96.55;99116.78;102328;1311;61422;-79
2021/11/13 09:57:14;;;;;;;77.10;41.70;;;;;;;6.88;96.25;99109.88;102355;1314;61206;-78
2021/11/13 09:59:41;;;;;;;83.80;52.60;;;;;;;6.90;95.92;99111.39;102408;1310;75475;-78
2021/11/13 10:02:08;;;;;;;70.50;41.80;;;;;;;6.88;95.67;99108.83;102405;1316;69537;-78
2021/11/13 10:04:34;;;;;;;113.90;81.50;;;;;;;6.79;95.27;99108.92;102405;1311;73964;-79
2021/11/13 10:07:01;;;;;;;65.80;42.10;;;;;;;6.75;95.37;99107.52;102349;1310;61206;-79
2021/11/13 10:09:27;;;;;;;129.40;99.80;;;;;;;6.70;95.11;99105.64;102415;1314;61386;-80
2021/11/13 10:11:54;;;;;;;72.90;44.00;;;;;;;6.68;95.18;99099.92;102487;1310;61490;-78
2021/11/13 10:14:39;;;;;;;71.40;42.00;;;;;;;6.68;94.88;99100.30;102510;1311;70268;-78
2021/11/13 10:17:23;;;;;;;82.60;61.60;;;;;;;6.65;94.54;99096.55;102192;1316;74487;-77
2021/11/13 10:19:51;;;;;;;69.60;42.00;;;;;;;6.70;94.69;99091.70;102309;1313;61331;-78
2021/11/13 10:22:18;;;;;;;73.30;45.60;;;;;;;6.71;94.72;99087.58;102418;1314;61368;-79
2021/11/13 10:24:49;;;;;;;74.20;44.70;;;;;;;6.62;94.50;99086.10;102421;1316;75676;-78
2021/11/13 10:27:17;;;;;;;73.60;42.40;;;;;;;6.51;94.69;99088.75;102375;1316;69538;-78
2021/11/13 10:29:46;;;;;;;64.60;39.80;;;;;;;6.52;94.90;99081.65;102368;1310;73481;-77
2021/11/13 10:32:16;;;;;;;74.80;42.10;;;;;;;6.58;94.78;99080.08;102406;1317;61330;-77
2021/11/13 10:34:56;;;;;;;73.20;42.50;;;;;;;6.66;94.93;99080.80;102473;1314;62258;-78
2021/11/13 10:37:48;;;;;;;77.10;48.10;;;;;;;6.78;94.90;99077.36;101980;1317;77602;-78
2021/11/13 10:40:16;;;;;;;79.40;44.50;;;;;;;6.91;94.85;99073.31;102440;1314;69314;-78
2021/11/13 10:42:43;;;;;;;81.00;45.00;;;;;;;6.98;94.23;99074.61;102360;1314;73241;-78
2021/11/13 10:45:09;;;;;;;77.60;44.40;;;;;;;6.96;94.04;99071.70;102365;1314;61412;-77
2021/11/13 10:47:38;;;;;;;73.40;43.20;;;;;;;6.90;93.60;99071.64;102417;1311;61642;-78
2021/11/13 10:50:31;;;;;;;75.50;42.50;;;;;;;6.75;93.56;99067.80;102448;1309;75499;-78
2021/11/13 10:53:09;;;;;;;72.70;41.30;;;;;;;6.64;93.58;99065.92;101709;1318;70095;-78
2021/11/13 10:55:39;;;;;;;77.60;45.20;;;;;;;6.62;93.53;99058.77;101676;1319;73764;-79
2021/11/13 10:58:29;;;;;;;76.40;43.80;;;;;;;6.64;93.43;99057.95;101690;1318;61481;-78
2021/11/13 11:00:57;;;;;;;76.10;44.90;;;;;;;6.69;93.41;99052.40;101636;1319;62327;-77
2021/11/13 11:03:35;;;;;;;74.30;42.10;;;;;;;6.79;93.68;99050.99;101671;1323;76005;-77
2021/11/13 11:06:03;;;;;;;71.40;42.70;;;;;;;6.94;93.56;99051.99;101604;1323;70350;-77
2021/11/13 11:08:32;;;;;;;73.40;42.00;;;;;;;6.97;93.22;99051.51;101558;1319;74552;-77
2021/11/13 11:11:01;;;;;;;75.30;44.30;;;;;;;6.99;93.04;99048.73;101611;1322;61288;-77
2021/11/13 11:13:40;;;;;;;73.50;44.10;;;;;;;6.97;92.78;99047.59;101646;1319;62651;-79
2021/11/13 11:16:43;;;;;;;78.40;42.50;;;;;;;6.97;92.54;99045.66;101617;1325;75508;-79